createdAt,value
2022-09-18T00:01:10.759Z,99.90
2022-09-18T00:03:38.688Z,99.90
2022-09-18T00:06:08.185Z,99.90
2022-09-18T00:08:38.509Z,99.90
2022-09-18T00:11:07.113Z,99.90
2022-09-18T00:13:35.298Z,99.90
2022-09-18T00:16:03.723Z,99.90
2022-09-18T00:18:34.547Z,99.90
2022-09-18T00:21:06.542Z,99.90
2022-09-18T00:23:34.640Z,99.90
2022-09-18T00:26:03.207Z,99.90
2022-09-18T00:28:31.269Z,99.90
2022-09-18T00:31:04.837Z,99.90
2022-09-18T00:33:35.682Z,99.90
2022-09-18T00:36:03.987Z,99.90
2022-09-18T00:38:32.995Z,99.90
2022-09-18T00:41:01.105Z,99.90
2022-09-18T00:43:33.917Z,99.90
2022-09-18T00:46:04.453Z,99.90
2022-09-18T00:48:37.757Z,99.90
2022-09-18T00:51:05.766Z,99.90
2022-09-18T00:53:34.393Z,99.90
2022-09-18T00:56:03.208Z,99.90
2022-09-18T00:58:31.649Z,99.90
2022-09-18T01:01:02.266Z,99.90
2022-09-18T01:03:31.663Z,99.90
2022-09-18T01:06:06.939Z,99.90
2022-09-18T01:08:43.793Z,99.90
2022-09-18T01:11:21.548Z,99.90
2022-09-18T01:13:55.002Z,99.90
2022-09-18T01:16:25.371Z,99.90
2022-09-18T01:19:07.012Z,99.90
2022-09-18T01:21:45.385Z,99.90
2022-09-18T01:24:35.238Z,99.90
2022-09-18T01:27:05.040Z,99.90
2022-09-18T01:29:41.274Z,99.90
2022-09-18T01:32:12.936Z,99.90
2022-09-18T01:34:46.019Z,99.90
2022-09-18T01:37:19.028Z,99.90
2022-09-18T01:39:50.260Z,99.90
2022-09-18T01:42:19.123Z,99.90
2022-09-18T01:44:49.781Z,99.90
2022-09-18T01:47:19.546Z,99.90
2022-09-18T01:49:53.575Z,99.90
2022-09-18T01:52:23.611Z,99.90
2022-09-18T01:54:53.574Z,99.90
2022-09-18T01:57:24.639Z,99.90
2022-09-18T01:59:57.370Z,99.90
2022-09-18T02:02:27.873Z,99.90
2022-09-18T02:04:58.418Z,99.90
2022-09-18T02:07:29.772Z,99.90
2022-09-18T02:09:58.427Z,99.90
2022-09-18T02:12:27.848Z,99.90
2022-09-18T02:14:58.806Z,99.90
2022-09-18T02:17:30.795Z,99.90
2022-09-18T02:20:00.602Z,99.90
2022-09-18T02:22:30.934Z,99.90
2022-09-18T02:25:03.388Z,99.90
2022-09-18T02:27:33.575Z,99.90
2022-09-18T02:30:03.843Z,99.90
2022-09-18T02:32:32.902Z,99.90
2022-09-18T02:35:00.683Z,99.90
2022-09-18T02:37:33.193Z,99.90
2022-09-18T02:40:09.953Z,99.90
2022-09-18T02:42:43.365Z,99.90
2022-09-18T02:45:15.915Z,99.90
2022-09-18T02:47:51.434Z,99.90
2022-09-18T02:50:22.982Z,99.90
2022-09-18T02:52:53.588Z,99.90
2022-09-18T02:55:23.297Z,99.90
2022-09-18T02:57:53.402Z,99.90
2022-09-18T03:00:22.613Z,99.90
2022-09-18T03:02:51.433Z,99.90
2022-09-18T03:05:19.476Z,99.90
2022-09-18T03:07:48.382Z,99.90
2022-09-18T03:10:16.195Z,99.90
2022-09-18T03:12:44.145Z,99.90
2022-09-18T03:15:12.581Z,99.90
2022-09-18T03:17:41.655Z,99.90
2022-09-18T03:20:10.378Z,99.90
2022-09-18T03:22:38.637Z,99.90
2022-09-18T03:25:07.114Z,99.90
2022-09-18T03:27:34.959Z,99.90
2022-09-18T03:30:02.982Z,99.90
2022-09-18T03:32:31.045Z,99.90
2022-09-18T03:35:00.729Z,99.90
2022-09-18T03:37:28.528Z,99.90
2022-09-18T03:39:56.699Z,99.90
2022-09-18T03:42:24.531Z,99.90
2022-09-18T03:44:52.975Z,99.90
2022-09-18T03:47:20.797Z,99.90
2022-09-18T03:49:48.778Z,99.90
2022-09-18T03:52:18.557Z,99.90
2022-09-18T03:54:46.540Z,99.90
2022-09-18T03:57:14.587Z,99.90
2022-09-18T03:59:42.855Z,99.90
2022-09-18T04:02:10.980Z,99.90
2022-09-18T04:04:39.122Z,99.90
2022-09-18T04:07:08.253Z,99.90
2022-09-18T04:09:39.827Z,99.90
2022-09-18T04:12:11.385Z,99.90
2022-09-18T04:14:39.290Z,99.90
2022-09-18T04:17:07.353Z,99.90
2022-09-18T04:19:35.617Z,99.90
2022-09-18T04:22:03.676Z,99.90
2022-09-18T04:24:31.787Z,99.90
2022-09-18T04:27:02.214Z,99.90
2022-09-18T04:29:30.230Z,99.90
2022-09-18T04:31:58.375Z,99.90
2022-09-18T04:34:26.136Z,99.90
2022-09-18T04:36:54.897Z,99.90
2022-09-18T04:39:22.932Z,99.90
2022-09-18T04:41:51.529Z,99.90
2022-09-18T04:44:20.816Z,99.90
2022-09-18T04:46:50.260Z,99.90
2022-09-18T04:49:19.735Z,99.90
2022-09-18T04:51:48.033Z,99.90
2022-09-18T04:54:16.262Z,99.90
2022-09-18T04:56:44.387Z,99.90
2022-09-18T04:59:13.357Z,99.90
2022-09-18T05:01:43.167Z,99.90
2022-09-18T05:04:13.945Z,99.90
2022-09-18T05:06:42.011Z,99.90
2022-09-18T05:09:10.890Z,99.90
2022-09-18T05:11:38.815Z,99.90
2022-09-18T05:14:06.914Z,99.90
2022-09-18T05:16:34.856Z,99.90
2022-09-18T05:19:06.576Z,99.90
2022-09-18T05:21:34.581Z,99.90
2022-09-18T05:24:04.049Z,99.90
2022-09-18T05:26:33.229Z,99.90
2022-09-18T05:29:02.727Z,99.90
2022-09-18T05:31:31.314Z,99.90
2022-09-18T05:33:59.577Z,99.90
2022-09-18T05:36:28.765Z,99.90
2022-09-18T05:38:56.676Z,99.90
2022-09-18T05:41:27.557Z,99.90
2022-09-18T05:43:55.517Z,99.90
2022-09-18T05:46:23.552Z,99.90
2022-09-18T05:48:54.150Z,99.90
2022-09-18T05:51:21.995Z,99.90
2022-09-18T05:53:51.578Z,99.90
2022-09-18T05:56:20.908Z,99.90
2022-09-18T05:58:48.788Z,99.90
2022-09-18T06:01:16.820Z,99.90
2022-09-18T06:03:44.961Z,99.90
2022-09-18T06:06:12.910Z,99.90
2022-09-18T06:08:40.816Z,99.90
2022-09-18T06:11:11.296Z,99.90
2022-09-18T06:13:39.747Z,99.90
2022-09-18T06:16:07.848Z,99.90
2022-09-18T06:18:35.704Z,99.90
2022-09-18T06:21:03.980Z,99.90
2022-09-18T06:23:32.365Z,99.90
2022-09-18T06:26:00.777Z,99.90
2022-09-18T06:28:30.863Z,99.90
2022-09-18T06:31:00.518Z,99.90
2022-09-18T06:33:29.267Z,99.90
2022-09-18T06:36:00.705Z,99.90
2022-09-18T06:38:28.586Z,99.90
2022-09-18T06:40:56.842Z,99.90
2022-09-18T06:43:27.521Z,99.90
2022-09-18T06:45:57.557Z,99.90
2022-09-18T06:48:26.152Z,99.90
2022-09-18T06:50:54.623Z,99.90
2022-09-18T06:53:23.231Z,99.90
2022-09-18T06:55:51.161Z,99.90
2022-09-18T06:58:20.477Z,99.90
2022-09-18T07:00:48.811Z,99.90
2022-09-18T07:03:21.272Z,99.90
2022-09-18T07:05:49.418Z,99.90
2022-09-18T07:08:17.886Z,99.90
2022-09-18T07:10:46.157Z,99.90
2022-09-18T07:13:14.299Z,99.90
2022-09-18T07:15:42.473Z,99.90
2022-09-18T07:18:10.954Z,99.90
2022-09-18T07:20:40.645Z,99.90
2022-09-18T07:23:09.782Z,99.90
2022-09-18T07:25:39.305Z,99.90
2022-09-18T07:28:08.921Z,99.90
2022-09-18T07:30:36.836Z,99.90
2022-09-18T07:33:07.979Z,99.90
2022-09-18T07:35:36.665Z,99.90
2022-09-18T07:38:08.729Z,99.90
2022-09-18T07:40:36.968Z,99.90
2022-09-18T07:43:06.338Z,99.90
2022-09-18T07:45:38.184Z,99.90
2022-09-18T07:48:09.608Z,99.90
2022-09-18T07:50:38.146Z,99.90
2022-09-18T07:53:09.256Z,99.90
2022-09-18T07:55:37.853Z,99.90
2022-09-18T07:58:08.655Z,99.90
2022-09-18T08:00:40.386Z,99.90
2022-09-18T08:03:27.316Z,97.80
2022-09-18T08:05:55.669Z,99.70
2022-09-18T08:08:26.761Z,97.50
2022-09-18T08:10:56.398Z,95.20
2022-09-18T08:13:25.356Z,95.60
2022-09-18T08:15:54.274Z,95.60
2022-09-18T08:18:28.810Z,95.00
2022-09-18T08:21:04.495Z,96.90
2022-09-18T08:23:36.165Z,92.80
2022-09-18T08:26:04.691Z,94.80
2022-09-18T08:28:32.857Z,90.80
2022-09-18T08:31:02.318Z,91.50
2022-09-18T08:36:45.547Z,88.40
2022-09-18T08:39:14.299Z,83.90
2022-09-18T08:41:56.615Z,82.20
2022-09-18T08:44:29.935Z,83.40
2022-09-18T08:47:07.006Z,78.60
2022-09-18T08:49:39.372Z,75.20
2022-09-18T08:52:15.020Z,70.90
2022-09-18T08:54:50.177Z,68.50
2022-09-18T08:57:27.323Z,65.20
2022-09-18T08:59:59.924Z,64.10
2022-09-18T09:02:47.749Z,66.70
2022-09-18T09:05:21.028Z,69.20
2022-09-18T09:08:31.531Z,61.70
2022-09-18T09:11:33.597Z,62.10
2022-09-18T09:14:34.191Z,62.10
2022-09-18T09:17:27.761Z,63.50
2022-09-18T09:20:07.408Z,63.70
2022-09-18T09:22:56.875Z,60.60
2022-09-18T09:25:37.173Z,53.80
2022-09-18T09:33:23.010Z,62.80
2022-09-18T09:36:00.001Z,53.00
2022-09-18T09:38:43.994Z,51.70
2022-09-18T09:41:26.596Z,50.50
2022-09-18T09:44:05.914Z,51.30
2022-09-18T09:47:01.008Z,49.30
2022-09-18T09:49:33.944Z,50.50
2022-09-18T09:52:19.618Z,50.90
2022-09-18T09:54:53.420Z,52.00
2022-09-18T09:57:30.706Z,51.10
2022-09-18T10:00:10.241Z,50.50
2022-09-18T10:02:53.733Z,50.90
2022-09-18T10:05:29.359Z,49.60
2022-09-18T10:08:05.340Z,48.70
2022-09-18T10:10:46.441Z,48.60
2022-09-18T10:13:21.341Z,45.60
2022-09-18T10:15:52.641Z,44.10
2022-09-18T10:18:26.608Z,41.70
2022-09-18T10:21:00.355Z,42.10
2022-09-18T10:23:35.320Z,40.90
2022-09-18T10:26:04.687Z,38.90
2022-09-18T10:28:35.380Z,37.30
2022-09-18T10:31:05.834Z,33.10
2022-09-18T10:33:40.108Z,31.40
2022-09-18T10:36:19.580Z,31.30
2022-09-18T10:38:51.714Z,31.40
2022-09-18T10:41:43.636Z,29.70
2022-09-18T10:44:28.012Z,27.40
2022-09-18T10:47:00.852Z,26.90
2022-09-18T10:49:36.315Z,26.60
2022-09-18T10:52:30.096Z,25.40
2022-09-18T10:55:24.475Z,23.70
2022-09-18T10:58:13.642Z,20.70
2022-09-18T11:01:01.450Z,20.20
2022-09-18T11:03:41.591Z,18.20
2022-09-18T11:06:16.881Z,17.60
2022-09-18T11:08:49.651Z,17.60
2022-09-18T11:11:27.513Z,15.90
2022-09-18T11:14:00.236Z,14.40
2022-09-18T11:16:41.939Z,15.60
2022-09-18T11:19:26.804Z,17.10
2022-09-18T11:22:02.250Z,16.20
2022-09-18T11:24:33.923Z,17.80
2022-09-18T11:27:03.837Z,16.50
2022-09-18T11:29:33.969Z,18.30
2022-09-18T11:32:14.500Z,17.60
2022-09-18T11:34:48.512Z,18.20
2022-09-18T11:37:28.731Z,19.80
2022-09-18T11:40:02.836Z,19.40
2022-09-18T11:42:32.831Z,19.90
2022-09-18T11:45:22.169Z,22.00
2022-09-18T11:48:00.787Z,19.80
2022-09-18T11:50:36.515Z,17.20
2022-09-18T11:53:12.216Z,18.10
2022-09-18T11:55:43.406Z,18.10
2022-09-18T11:58:16.984Z,18.80
2022-09-18T12:00:49.380Z,18.50
2022-09-18T12:03:23.556Z,19.40
2022-09-18T12:05:57.535Z,19.80
2022-09-18T12:08:34.961Z,20.00
2022-09-18T12:11:14.323Z,18.90
2022-09-18T12:14:04.335Z,17.40
2022-09-18T12:16:45.772Z,18.20
2022-09-18T12:19:20.504Z,17.90
2022-09-18T12:21:55.950Z,17.10
2022-09-18T12:24:28.006Z,15.60
2022-09-18T12:27:26.008Z,13.60
2022-09-18T12:30:09.268Z,13.00
2022-09-18T12:33:18.923Z,13.70
2022-09-18T12:36:10.326Z,12.70
2022-09-18T12:38:55.717Z,13.50
2022-09-18T12:41:36.509Z,15.40
2022-09-18T12:44:26.327Z,14.30
2022-09-18T12:47:17.047Z,15.90
2022-09-18T12:50:06.011Z,14.10
2022-09-18T12:53:08.505Z,12.70
2022-09-18T12:55:53.019Z,13.30
2022-09-18T12:58:36.499Z,14.20
2022-09-18T13:01:15.982Z,13.10
2022-09-18T13:03:53.019Z,14.00
2022-09-18T13:06:37.503Z,12.90
2022-09-18T13:09:17.968Z,13.80
2022-09-18T13:11:55.700Z,14.10
2022-09-18T13:14:33.955Z,13.50
2022-09-18T13:17:12.518Z,11.00
2022-09-18T13:19:49.280Z,11.80
2022-09-18T13:22:21.554Z,11.00
2022-09-18T13:24:56.383Z,9.90
2022-09-18T13:27:34.355Z,11.10
2022-09-18T13:30:18.208Z,12.00
2022-09-18T13:32:50.378Z,12.30
2022-09-18T13:35:29.692Z,12.60
2022-09-18T13:38:23.645Z,13.80
2022-09-18T13:41:06.818Z,13.50
2022-09-18T13:43:48.562Z,12.90
2022-09-18T13:46:42.121Z,13.10
2022-09-18T13:49:24.382Z,10.50
2022-09-18T13:51:53.418Z,11.60
2022-09-18T13:54:32.411Z,13.20
2022-09-18T13:57:37.768Z,12.10
2022-09-18T14:00:46.027Z,12.40
2022-09-18T14:03:43.345Z,9.90
2022-09-18T14:06:46.894Z,9.70
2022-09-18T14:09:55.703Z,13.60
2022-09-18T14:12:33.713Z,9.50
2022-09-18T14:15:04.857Z,10.50
2022-09-18T14:17:41.936Z,5.80
2022-09-18T14:20:21.910Z,5.90
2022-09-18T14:25:47.303Z,7.60
2022-09-18T14:28:22.264Z,7.20
2022-09-18T14:31:17.939Z,6.20
2022-09-18T14:33:46.917Z,5.80
2022-09-18T14:36:17.517Z,6.30
2022-09-18T14:38:53.396Z,4.60
2022-09-18T14:41:29.372Z,2.90
2022-09-18T14:44:04.512Z,7.60
2022-09-18T14:46:35.249Z,10.20
2022-09-18T14:49:04.947Z,6.90
2022-09-18T14:51:49.291Z,6.90
2022-09-18T14:54:31.394Z,6.60
2022-09-18T14:57:06.724Z,7.90
2022-09-18T14:59:36.590Z,4.80
2022-09-18T15:02:28.845Z,5.10
2022-09-18T15:04:57.488Z,7.40
2022-09-18T15:07:31.262Z,4.70
2022-09-18T15:10:07.319Z,3.90
2022-09-18T15:12:43.763Z,6.00
2022-09-18T15:15:34.852Z,4.90
2022-09-18T15:18:05.790Z,3.90
2022-09-18T15:20:35.008Z,4.40
2022-09-18T15:23:19.730Z,6.80
2022-09-18T15:26:07.263Z,5.90
2022-09-18T15:28:39.303Z,5.40
2022-09-18T15:31:17.692Z,4.30
2022-09-18T15:33:55.800Z,4.30
2022-09-18T15:36:33.334Z,5.30
2022-09-18T15:41:42.222Z,3.00
2022-09-18T15:44:49.964Z,2.60
2022-09-18T15:47:38.028Z,3.10
2022-09-18T15:50:38.198Z,2.70
2022-09-18T15:53:33.965Z,1.60
2022-09-18T15:56:12.691Z,2.20
2022-09-18T15:59:02.858Z,6.20
2022-09-18T16:01:52.453Z,6.70
2022-09-18T16:04:32.113Z,5.40
2022-09-18T16:07:04.185Z,4.10
2022-09-18T16:09:43.122Z,6.20
2022-09-18T16:12:40.217Z,4.70
2022-09-18T16:15:23.877Z,5.20
2022-09-18T16:18:25.910Z,4.30
2022-09-18T16:21:20.111Z,4.00
2022-09-18T16:24:01.196Z,4.70
2022-09-18T16:26:37.157Z,4.50
2022-09-18T16:29:08.858Z,5.10
2022-09-18T16:31:40.292Z,5.60
2022-09-18T16:34:36.149Z,5.00
2022-09-18T16:37:14.078Z,5.00
2022-09-18T16:39:50.950Z,4.60
2022-09-18T16:42:20.772Z,4.30
2022-09-18T16:44:52.990Z,4.30
2022-09-18T16:47:22.569Z,7.60
2022-09-18T16:52:47.504Z,7.00
2022-09-18T16:55:20.911Z,7.70
2022-09-18T16:57:50.294Z,8.10
2022-09-18T17:00:32.766Z,9.80
2022-09-18T17:05:38.314Z,8.70
2022-09-18T17:08:09.920Z,9.70
2022-09-18T17:10:44.380Z,12.90
2022-09-18T17:13:14.204Z,11.40
2022-09-18T17:15:43.306Z,13.80
2022-09-18T17:20:44.755Z,11.60
2022-09-18T17:23:15.125Z,12.30
2022-09-18T17:28:30.589Z,12.70
2022-09-18T17:31:17.280Z,14.00
2022-09-18T17:33:49.593Z,14.60
2022-09-18T17:36:21.421Z,13.80
2022-09-18T17:38:58.420Z,18.80
2022-09-18T17:41:39.502Z,18.60
2022-09-18T17:46:39.133Z,31.60
2022-09-18T17:49:17.603Z,22.60
2022-09-18T17:51:51.956Z,40.30
2022-09-18T18:01:56.421Z,21.10
2022-09-18T18:04:28.798Z,29.10
2022-09-18T18:07:00.528Z,19.30
2022-09-18T18:09:33.509Z,17.20
2022-09-18T18:12:03.648Z,15.80
2022-09-18T18:14:33.594Z,16.20
2022-09-18T18:17:09.270Z,21.30
2022-09-18T18:19:40.592Z,33.30
2022-09-18T18:22:09.099Z,31.80
2022-09-18T18:24:42.801Z,33.70
2022-09-18T18:27:13.854Z,30.20
2022-09-18T18:29:42.874Z,25.40
2022-09-18T18:32:14.425Z,23.20
2022-09-18T18:34:47.331Z,22.20
2022-09-18T18:37:17.174Z,16.50
2022-09-18T18:39:50.238Z,18.20
2022-09-18T18:42:23.131Z,19.20
2022-09-18T18:44:53.460Z,22.70
2022-09-18T18:47:22.054Z,29.50
2022-09-18T18:49:51.228Z,33.40
2022-09-18T18:52:22.155Z,42.20
2022-09-18T18:54:53.561Z,41.80
2022-09-18T18:57:26.776Z,49.90
2022-09-18T19:00:01.192Z,47.80
2022-09-18T19:02:32.777Z,38.10
2022-09-18T19:05:11.036Z,40.20
2022-09-18T19:07:44.712Z,46.50
2022-09-18T19:10:19.922Z,47.40
2022-09-18T19:12:57.952Z,38.70
2022-09-18T19:15:42.146Z,36.40
2022-09-18T19:18:16.268Z,35.40
2022-09-18T19:20:53.400Z,34.70
2022-09-18T19:23:45.664Z,32.90
2022-09-18T19:26:16.557Z,32.90
2022-09-18T19:28:50.036Z,33.10
2022-09-18T19:31:21.170Z,31.80
2022-09-18T19:33:52.780Z,31.70
2022-09-18T19:36:35.785Z,33.10
2022-09-18T19:39:07.445Z,32.90
2022-09-18T19:41:41.245Z,32.90
2022-09-18T19:44:29.549Z,35.00
2022-09-18T19:47:01.918Z,36.20
2022-09-18T19:49:34.985Z,34.90
2022-09-18T19:52:15.469Z,36.40
2022-09-18T19:54:47.145Z,37.90
2022-09-18T19:57:21.346Z,36.60
2022-09-18T19:59:53.783Z,38.20
2022-09-18T20:02:38.940Z,38.90
2022-09-18T20:05:15.395Z,38.70
2022-09-18T20:07:51.032Z,40.70
2022-09-18T20:10:20.786Z,42.30
2022-09-18T20:13:06.878Z,41.30
2022-09-18T20:15:39.421Z,41.50
2022-09-18T20:18:08.605Z,41.60
2022-09-18T20:20:50.029Z,39.40
2022-09-18T20:23:20.962Z,39.50
2022-09-18T20:25:53.215Z,39.10
2022-09-18T20:28:30.170Z,40.10
2022-09-18T20:31:03.043Z,39.30
2022-09-18T20:33:32.169Z,39.20
2022-09-18T20:36:04.155Z,39.90
2022-09-18T20:38:33.350Z,42.40
2022-09-18T20:41:06.549Z,41.30
2022-09-18T20:43:43.058Z,42.10
2022-09-18T20:46:18.141Z,44.00
2022-09-18T20:48:54.546Z,50.70
2022-09-18T20:51:27.053Z,62.20
2022-09-18T20:53:58.998Z,74.50
2022-09-18T20:56:29.631Z,90.40
2022-09-18T20:59:05.147Z,94.00
2022-09-18T21:01:37.921Z,99.90
2022-09-18T21:04:08.608Z,99.90
2022-09-18T21:06:37.932Z,99.90
2022-09-18T21:09:09.675Z,99.90
2022-09-18T21:11:40.597Z,99.90
2022-09-18T21:14:15.764Z,99.90
2022-09-18T21:16:44.950Z,99.90
2022-09-18T21:19:15.293Z,99.90
2022-09-18T21:21:44.021Z,99.90
2022-09-18T21:24:12.914Z,99.90
2022-09-18T21:26:43.235Z,99.90
2022-09-18T21:29:24.055Z,99.90
2022-09-18T21:31:55.054Z,99.90
2022-09-18T21:34:27.197Z,99.90
2022-09-18T21:36:58.760Z,99.90
2022-09-18T21:39:30.968Z,99.90
2022-09-18T21:42:10.410Z,99.90
2022-09-18T21:44:45.713Z,99.90
2022-09-18T21:47:21.695Z,99.90
2022-09-18T21:49:50.034Z,99.90
2022-09-18T21:52:18.270Z,99.90
2022-09-18T21:54:49.839Z,99.90
2022-09-18T21:57:18.401Z,99.90
2022-09-18T21:59:50.588Z,99.90
2022-09-18T22:02:22.258Z,99.90
2022-09-18T22:04:52.032Z,99.90
2022-09-18T22:07:22.800Z,99.90
2022-09-18T22:09:52.538Z,99.90
2022-09-18T22:12:20.867Z,99.90
2022-09-18T22:14:52.438Z,99.90
2022-09-18T22:17:22.664Z,99.90
2022-09-18T22:19:51.098Z,99.90
2022-09-18T22:22:22.066Z,99.90
2022-09-18T22:24:52.685Z,99.90
2022-09-18T22:27:21.039Z,99.90
2022-09-18T22:29:51.862Z,99.90
2022-09-18T22:32:20.221Z,99.90
2022-09-18T22:34:50.438Z,99.90
2022-09-18T22:37:26.636Z,99.90
2022-09-18T22:39:58.025Z,99.90
2022-09-18T22:42:26.333Z,99.90
2022-09-18T22:45:00.812Z,99.90
2022-09-18T22:47:32.009Z,99.90
2022-09-18T22:50:04.421Z,99.90
2022-09-18T22:52:33.026Z,99.90
2022-09-18T22:55:04.987Z,99.90
2022-09-18T22:57:33.547Z,99.90
2022-09-18T23:00:04.192Z,99.90
2022-09-18T23:02:35.897Z,99.90
2022-09-18T23:05:05.170Z,99.90
2022-09-18T23:07:41.466Z,99.90
2022-09-18T23:10:13.183Z,99.90
2022-09-18T23:12:41.848Z,99.90
2022-09-18T23:15:13.276Z,99.90
2022-09-18T23:17:44.227Z,99.90
2022-09-18T23:20:13.002Z,99.90
2022-09-18T23:22:41.955Z,99.90
2022-09-18T23:25:11.987Z,99.90
2022-09-18T23:27:41.553Z,99.90
2022-09-18T23:30:12.496Z,99.90
2022-09-18T23:32:41.181Z,99.90
2022-09-18T23:35:10.897Z,99.90
2022-09-18T23:37:40.641Z,99.90
2022-09-18T23:40:11.785Z,99.90
2022-09-18T23:42:44.742Z,99.90
2022-09-18T23:45:14.791Z,99.90
2022-09-18T23:47:43.253Z,99.90
2022-09-18T23:50:11.739Z,99.90
2022-09-18T23:52:39.871Z,99.90
2022-09-18T23:55:09.202Z,99.90
2022-09-18T23:57:37.504Z,99.90
